Terminal Aerodrome Forecast
Issued by NWS

Home | Current Version | Previous Version | Text Only | Print | Product List | Glossary On
Versions: 1 2 3 4 5 6 7 8 9 10 11 12 13 14
000
FTUS45 KPIH 152320
TAFSUN
TAF
KSUN 152320Z 1600/1706 14006KT P6SM FEW025 SCT130 SCT180
     FM160500 15006KT P6SM SCT025 BKN130 BKN150
     FM160800 VRB04KT 4SM -SN BKN025 BKN070 OVC130
     FM161500 VRB05KT P6SM VCSH FEW040 BKN070
     FM170300 32008KT P6SM FEW090
      AMD LTD TO CLD VIS AND WIND 1606/1614=

USA.gov is the U.S. government's official web portal to all federal, state and local government web resources and services.